KPOU/POU METAR and TAF weather

Enter ICAO airport designator
Station Type Date Time Source
KPOU METAR 2022/08/16 17:53 UTC NOAA

KPOU 161753Z 05010KT 10SM FEW080 29/09 A3000 RMK AO2 SLP153 T02890089 10306 20178 58012


Station Type Date Time Source
KPOU Decoded METAR 2022/08/16 17:53 UTC NOAA

POUGHKEEPSIE DUTCHESS CTY, NY, United States (KPOU) 41-38N 073-53W 46M
Aug 16, 2022 - 01:53 PM EDT / 2022.08.16 1753 UTC
Wind: from the NE (050 degrees) at 12 MPH (10 KT):0
Visibility: 10 mile(s):0
Sky conditions: mostly clear
Temperature: 84.0 F (28.9 C)
Dew Point: 48.0 F (8.9 C)
Relative Humidity: 28%
Pressure (altimeter): 30 in. Hg (1015 hPa)
Pressure tendency: 0.04 inches (1.2 hPa) lower than three hours ago
ob: KPOU 161753Z 05010KT 10SM FEW080 29/09 A3000 RMK AO2 SLP153 T02890089 10306 20178 58012
cycle: 18

Station Type Date Time Source
KPOU TAF 2022/08/16 18:22 UTC NOAA

TAF KPOU 161720Z 1618/1718 06008KT P6SM SCT060
FM170000 02003KT P6SM FEW070 BKN130
FM171300 36007KT P6SM VCSH FEW050 BKN080

Example: see airport list